Time;durP1;ratioP1;P1;durP2;ratioP2;P2;SDS_P1;SDS_P2;PMS_P1;PMS_P2;Temp;Humidity;BMP_temperature;BMP_pressure;BME280_temperature;BME280_humidity;BME280_pressure;Samples;Min_cycle;Max_cycle;Signal;HPM_P1;HPM_P2
2022/08/19 00:02:52;;;;;;;9.02;6.40;;;;;;;;;;10265419;28;20061;-64
2022/08/19 00:07:52;;;;;;;7.40;6.70;;;;;;;;;;10264191;28;20068;-63
2022/08/19 00:12:51;;;;;;;6.80;6.15;;;;;;;;;;10263843;28;20076;-63
2022/08/19 00:17:50;;;;;;;7.47;6.15;;;;;;;;;;10264940;28;20072;-63
2022/08/19 00:22:48;;;;;;;11.90;6.68;;;;;;;;;;10264864;28;20064;-63
2022/08/19 00:27:48;;;;;;;9.40;7.10;;;;;;;;;;10264107;28;20069;-63
2022/08/19 00:32:47;;;;;;;10.60;6.63;;;;;;;;;;10263991;28;20080;-63
2022/08/19 00:37:45;;;;;;;7.80;6.10;;;;;;;;;;10264395;28;20077;-63
2022/08/19 00:42:44;;;;;;;7.90;6.70;;;;;;;;;;10264308;28;20073;-63
2022/08/19 00:47:44;;;;;;;7.70;7.00;;;;;;;;;;10262825;28;20084;-63
2022/08/19 00:52:45;;;;;;;7.47;6.65;;;;;;;;;;10263669;28;20076;-63
2022/08/19 00:57:54;;;;;;;7.30;6.25;;;;;;;;;;10264039;28;20072;-63
2022/08/19 01:02:54;;;;;;;9.05;6.57;;;;;;;;;;10262517;28;20082;-63
2022/08/19 01:07:52;;;;;;;8.48;6.97;;;;;;;;;;10263019;28;20525;-62
2022/08/19 01:12:51;;;;;;;7.35;6.60;;;;;;;;;;10275998;28;20117;-64
2022/08/19 01:17:49;;;;;;;10.75;6.75;;;;;;;;;;10274256;28;20477;-64
2022/08/19 01:22:50;;;;;;;7.30;6.60;;;;;;;;;;10261315;28;20438;-64
2022/08/19 01:27:50;;;;;;;10.52;9.57;;;;;;;;;;10262439;28;20073;-64
2022/08/19 01:32:51;;;;;;;10.32;7.68;;;;;;;;;;10261301;28;20073;-64
2022/08/19 01:37:53;;;;;;;7.65;6.85;;;;;;;;;;10260582;28;20061;-64
2022/08/19 01:42:52;;;;;;;7.65;6.80;;;;;;;;;;10262138;28;20074;-64
2022/08/19 01:47:50;;;;;;;9.18;6.65;;;;;;;;;;10260471;28;20084;-64
2022/08/19 01:53:01;;;;;;;8.40;7.55;;;;;;;;;;10260519;28;20458;-64
2022/08/19 01:58:05;;;;;;;8.27;7.57;;;;;;;;;;10268930;28;20500;-64
2022/08/19 02:03:04;;;;;;;8.90;7.43;;;;;;;;;;10273733;28;20474;-64
2022/08/19 02:08:03;;;;;;;7.70;6.75;;;;;;;;;;10268497;28;20091;-64
2022/08/19 02:13:03;;;;;;;8.50;7.55;;;;;;;;;;10261035;28;20080;-64
2022/08/19 02:18:01;;;;;;;8.48;7.65;;;;;;;;;;10260466;28;20540;-64
2022/08/19 02:23:01;;;;;;;7.25;6.55;;;;;;;;;;10260434;28;20072;-64
2022/08/19 02:28:00;;;;;;;7.82;7.05;;;;;;;;;;10258586;28;20041;-64
2022/08/19 02:32:59;;;;;;;9.93;7.05;;;;;;;;;;10259616;28;20069;-64
2022/08/19 02:43:15;;;;;;;10.45;7.35;;;;;;;;;;10259248;28;20076;-64
2022/08/19 02:48:14;;;;;;;10.25;7.15;;;;;;;;;;10256616;28;20149;-64
2022/08/19 02:53:18;;;;;;;8.57;7.10;;;;;;;;;;10260351;28;20076;-64
2022/08/19 02:58:19;;;;;;;7.40;6.70;;;;;;;;;;10259259;28;20552;-64
2022/08/19 03:03:18;;;;;;;7.85;7.03;;;;;;;;;;10259041;28;20095;-64
2022/08/19 03:08:16;;;;;;;10.23;7.68;;;;;;;;;;10259513;28;20457;-64
2022/08/19 03:13:19;;;;;;;7.35;6.65;;;;;;;;;;10259441;28;20519;-64
2022/08/19 03:18:18;;;;;;;8.32;7.45;;;;;;;;;;10258294;28;20521;-64
2022/08/19 03:23:16;;;;;;;8.82;7.95;;;;;;;;;;10259655;28;20477;-64
2022/08/19 03:28:15;;;;;;;11.18;8.50;;;;;;;;;;10258502;28;20073;-64
2022/08/19 03:33:15;;;;;;;11.80;8.27;;;;;;;;;;10257738;28;20091;-64
2022/08/19 03:38:25;;;;;;;8.07;7.28;;;;;;;;;;10256873;28;20065;-64
2022/08/19 03:43:24;;;;;;;9.65;7.63;;;;;;;;;;10259400;28;20076;-64
2022/08/19 03:48:24;;;;;;;8.38;7.57;;;;;;;;;;10265382;28;20084;-64
2022/08/19 03:53:22;;;;;;;8.30;7.60;;;;;;;;;;10266663;28;20076;-64
2022/08/19 03:58:20;;;;;;;8.23;7.43;;;;;;;;;;10264463;28;20065;-64
2022/08/19 04:03:19;;;;;;;10.65;8.30;;;;;;;;;;10265169;28;20514;-63
2022/08/19 04:08:20;;;;;;;16.73;9.93;;;;;;;;;;10272803;28;20068;-63
2022/08/19 04:13:19;;;;;;;10.75;8.77;;;;;;;;;;10278307;28;20068;-63
2022/08/19 04:18:17;;;;;;;10.85;9.20;;;;;;;;;;10276400;28;20475;-64
2022/08/19 04:23:15;;;;;;;25.85;21.85;;;;;;;;;;10265748;28;20068;-63
2022/08/19 04:28:15;;;;;;;16.75;15.15;;;;;;;;;;10264510;28;20072;-64
2022/08/19 04:33:15;;;;;;;10.07;9.07;;;;;;;;;;10263396;28;20167;-63
2022/08/19 04:38:15;;;;;;;9.93;9.02;;;;;;;;;;10260741;28;20072;-63
2022/08/19 04:43:15;;;;;;;15.40;9.73;;;;;;;;;;10261498;28;20079;-63
2022/08/19 04:48:13;;;;;;;9.07;7.63;;;;;;;;;;10263803;28;20529;-63
2022/08/19 04:53:24;;;;;;;9.35;7.75;;;;;;;;;;10262325;28;20088;-63
2022/08/19 04:58:24;;;;;;;10.18;8.93;;;;;;;;;;10262889;28;20061;-63
2022/08/19 05:03:23;;;;;;;10.02;7.60;;;;;;;;;;10263487;28;20077;-64
2022/08/19 05:08:28;;;;;;;14.02;8.90;;;;;;;;;;10262735;28;20099;-64
2022/08/19 05:13:30;;;;;;;14.70;8.85;;;;;;;;;;10262500;28;20088;-63
2022/08/19 05:23:44;;;;;;;16.20;10.85;;;;;;;;;;10263386;28;20435;-63
2022/08/19 05:28:43;;;;;;;15.23;11.73;;;;;;;;;;10262228;28;20084;-62
2022/08/19 05:33:42;;;;;;;30.23;13.15;;;;;;;;;;10262649;28;20084;-64
2022/08/19 05:38:40;;;;;;;19.77;11.65;;;;;;;;;;10258431;28;20064;-64
2022/08/19 05:43:39;;;;;;;16.30;11.55;;;;;;;;;;10258126;28;20510;-64
2022/08/19 05:48:39;;;;;;;20.55;13.23;;;;;;;;;;10256892;28;20108;-66
2022/08/19 05:53:37;;;;;;;24.23;11.40;;;;;;;;;;10265320;28;20529;-63
2022/08/19 05:58:36;;;;;;;19.90;13.52;;;;;;;;;;10272293;28;20103;-62
2022/08/19 06:03:35;;;;;;;17.27;13.70;;;;;;;;;;10260267;28;20072;-62
2022/08/19 06:08:36;;;;;;;22.40;17.10;;;;;;;;;;10258911;28;20469;-63
2022/08/19 06:13:34;;;;;;;18.65;14.00;;;;;;;;;;10259794;28;20080;-64
2022/08/19 06:18:34;;;;;;;16.08;13.95;;;;;;;;;;10260388;28;20079;-62
2022/08/19 06:23:33;;;;;;;15.40;13.38;;;;;;;;;;10258696;28;20072;-63
2022/08/19 06:28:33;;;;;;;15.57;13.73;;;;;;;;;;10258116;28;20113;-62
2022/08/19 06:33:31;;;;;;;17.40;14.02;;;;;;;;;;10258326;28;20096;-63
2022/08/19 06:38:29;;;;;;;23.70;15.52;;;;;;;;;;10257454;28;20068;-63
2022/08/19 06:43:28;;;;;;;19.38;15.07;;;;;;;;;;10258217;28;20627;-63
2022/08/19 06:48:27;;;;;;;21.40;17.02;;;;;;;;;;10242824;28;20104;-62
2022/08/19 06:53:27;;;;;;;23.73;15.30;;;;;;;;;;10239578;28;20100;-63
2022/08/19 06:58:26;;;;;;;22.60;15.73;;;;;;;;;;10249443;28;20575;-63
2022/08/19 07:03:32;;;;;;;19.17;13.07;;;;;;;;;;10254062;28;20075;-63
2022/08/19 07:08:36;;;;;;;12.50;10.30;;;;;;;;;;10254781;28;20084;-63
2022/08/19 07:13:40;;;;;;;19.05;8.80;;;;;;;;;;10255908;28;20084;-63
2022/08/19 07:18:44;;;;;;;8.23;7.35;;;;;;;;;;10262712;28;20079;-63
2022/08/19 07:23:44;;;;;;;15.15;9.43;;;;;;;;;;10264135;28;20077;-63
2022/08/19 07:28:43;;;;;;;12.70;8.73;;;;;;;;;;10251208;28;20060;-61
2022/08/19 07:33:50;;;;;;;12.57;8.82;;;;;;;;;;10243060;28;20069;-60
2022/08/19 07:38:53;;;;;;;8.32;6.82;;;;;;;;;;10244211;28;20476;-62
2022/08/19 07:43:52;;;;;;;14.18;7.40;;;;;;;;;;10243613;28;20147;-61
2022/08/19 07:48:52;;;;;;;10.60;8.95;;;;;;;;;;10257279;28;20481;-61
2022/08/19 07:53:50;;;;;;;18.23;6.97;;;;;;;;;;10247066;28;20136;-61
2022/08/19 07:58:50;;;;;;;9.88;7.10;;;;;;;;;;10254772;28;20319;-65
2022/08/19 08:09:17;;;;;;;8.00;7.10;;;;;;;;;;10246943;28;20053;-65
2022/08/19 08:14:16;;;;;;;12.85;7.50;;;;;;;;;;10256341;28;20080;-63
2022/08/19 08:19:27;;;;;;;12.60;6.28;;;;;;;;;;10245239;28;20080;-64
2022/08/19 08:24:27;;;;;;;9.20;6.50;;;;;;;;;;10249732;28;20514;-63
2022/08/19 08:29:29;;;;;;;11.83;7.70;;;;;;;;;;10250093;28;20068;-63
2022/08/19 08:34:32;;;;;;;7.50;6.78;;;;;;;;;;10267728;28;20083;-62
2022/08/19 08:39:32;;;;;;;10.35;6.68;;;;;;;;;;10264823;28;20080;-63
2022/08/19 08:44:45;;;;;;;10.52;6.50;;;;;;;;;;10269433;28;20486;-63
2022/08/19 08:49:46;;;;;;;8.10;6.90;;;;;;;;;;10262918;28;20095;-62
2022/08/19 08:54:51;;;;;;;9.68;6.65;;;;;;;;;;10258305;28;20089;-61
2022/08/19 08:59:52;;;;;;;18.17;14.77;;;;;;;;;;10253309;28;20069;-63
2022/08/19 09:04:52;;;;;;;14.05;7.68;;;;;;;;;;10257330;28;20068;-64
2022/08/19 09:09:53;;;;;;;7.70;6.88;;;;;;;;;;10264754;28;20069;-62
2022/08/19 09:14:56;;;;;;;9.83;6.83;;;;;;;;;;10260291;28;20073;-62
2022/08/19 09:19:55;;;;;;;8.02;6.55;;;;;;;;;;10266189;28;20064;-63
2022/08/19 09:24:56;;;;;;;10.52;6.60;;;;;;;;;;10261875;28;20493;-62
2022/08/19 09:29:54;;;;;;;11.82;7.32;;;;;;;;;;10263372;28;20528;-62
2022/08/19 09:34:54;;;;;;;9.20;6.57;;;;;;;;;;10252734;28;20073;-62
2022/08/19 09:39:53;;;;;;;11.75;6.30;;;;;;;;;;10262320;28;20077;-64
2022/08/19 09:44:53;;;;;;;10.82;6.90;;;;;;;;;;10263284;28;20073;-62
2022/08/19 09:49:51;;;;;;;13.02;7.28;;;;;;;;;;10258134;28;20129;-61
2022/08/19 09:54:52;;;;;;;10.52;6.68;;;;;;;;;;10255466;28;20076;-63
2022/08/19 09:59:51;;;;;;;6.95;6.28;;;;;;;;;;10262889;28;20600;-61
2022/08/19 10:10:09;;;;;;;12.75;7.47;;;;;;;;;;10258895;28;20089;-62
2022/08/19 10:15:08;;;;;;;7.72;6.35;;;;;;;;;;10258683;28;20080;-63
2022/08/19 10:20:09;;;;;;;8.77;6.28;;;;;;;;;;10259085;28;20683;-62
2022/08/19 10:25:08;;;;;;;9.27;7.85;;;;;;;;;;10258764;28;20049;-64
2022/08/19 10:30:08;;;;;;;11.05;6.25;;;;;;;;;;10260134;28;20073;-63
2022/08/19 10:35:09;;;;;;;8.27;6.82;;;;;;;;;;10259109;28;20440;-62
2022/08/19 10:40:11;;;;;;;;;;;;;;;;;;10257684;28;20119;-62
2022/08/19 10:45:10;;;;;;;7.60;6.85;;;;;;;;;;10255814;28;20393;-62
2022/08/19 11:00:43;;;;;;;9.20;6.30;;;;;;;;;;10263955;28;20129;-63
2022/08/19 11:05:43;;;;;;;11.48;7.43;;;;;;;;;;10264211;28;20080;-63
2022/08/19 11:10:42;;;;;;;10.02;6.78;;;;;;;;;;10259636;28;20076;-64
2022/08/19 11:15:47;;;;;;;9.95;6.43;;;;;;;;;;10267942;28;20084;-63
2022/08/19 11:20:47;;;;;;;10.48;6.28;;;;;;;;;;10263216;28;20155;-63
2022/08/19 11:25:46;;;;;;;7.93;6.25;;;;;;;;;;10265486;28;20060;-62
2022/08/19 11:30:44;;;;;;;9.32;6.55;;;;;;;;;;10266436;28;20072;-62
2022/08/19 11:35:42;;;;;;;8.45;6.55;;;;;;;;;;10264280;28;20079;-62
2022/08/19 11:40:42;;;;;;;7.80;6.35;;;;;;;;;;10262512;28;20510;-62
2022/08/19 11:45:41;;;;;;;8.20;6.82;;;;;;;;;;10269974;28;20085;-62
2022/08/19 11:50:43;;;;;;;9.32;6.55;;;;;;;;;;10258946;28;20175;-62
2022/08/19 11:55:44;;;;;;;11.80;6.63;;;;;;;;;;10268210;28;20073;-63
2022/08/19 12:00:44;;;;;;;8.18;6.65;;;;;;;;;;10267892;28;20065;-62
2022/08/19 12:05:43;;;;;;;11.43;6.47;;;;;;;;;;10263488;28;20076;-62
2022/08/19 12:10:41;;;;;;;9.60;6.40;;;;;;;;;;10243157;28;20088;-62
2022/08/19 12:15:41;;;;;;;15.13;6.88;;;;;;;;;;10241326;28;20077;-63
2022/08/19 12:20:41;;;;;;;9.00;7.13;;;;;;;;;;10242354;28;20076;-63
2022/08/19 12:25:51;;;;;;;8.20;5.60;;;;;;;;;;10244487;28;20080;-62
2022/08/19 12:30:51;;;;;;;8.15;6.53;;;;;;;;;;10249707;28;20093;-61
2022/08/19 12:35:50;;;;;;;7.13;6.40;;;;;;;;;;10243836;28;20068;-62
2022/08/19 12:40:49;;;;;;;9.25;6.75;;;;;;;;;;10260276;28;20072;-62
2022/08/19 12:45:47;;;;;;;11.02;6.30;;;;;;;;;;10260622;28;20075;-62
2022/08/19 12:50:47;;;;;;;9.20;5.72;;;;;;;;;;10259400;28;20518;-62
2022/08/19 12:55:45;;;;;;;9.63;5.75;;;;;;;;;;10271218;28;20566;-62
2022/08/19 13:00:44;;;;;;;7.43;5.68;;;;;;;;;;10260143;28;20064;-62
2022/08/19 13:05:42;;;;;;;13.90;5.90;;;;;;;;;;10259630;28;20079;-62
2022/08/19 13:10:42;;;;;;;9.88;5.65;;;;;;;;;;10258491;28;20069;-62
2022/08/19 13:15:42;;;;;;;10.35;6.85;;;;;;;;;;10263616;28;20119;-62
2022/08/19 13:20:41;;;;;;;7.47;5.70;;;;;;;;;;10274000;28;20064;-62
2022/08/19 13:25:58;;;;;;;10.13;6.20;;;;;;;;;;10267171;28;20140;-62
2022/08/19 13:36:12;;;;;;;11.00;5.90;;;;;;;;;;10258550;28;20073;-62
2022/08/19 13:41:11;;;;;;;8.32;5.85;;;;;;;;;;10258100;28;20469;-62
2022/08/19 13:46:13;;;;;;;12.00;6.32;;;;;;;;;;10259338;28;20080;-63
2022/08/19 13:51:12;;;;;;;11.75;7.10;;;;;;;;;;10255170;28;20073;-62
2022/08/19 13:56:13;;;;;;;11.25;6.03;;;;;;;;;;10256731;28;20057;-62
2022/08/19 14:01:11;;;;;;;7.60;5.75;;;;;;;;;;10256113;28;20072;-61
2022/08/19 14:06:10;;;;;;;12.27;6.05;;;;;;;;;;10256231;28;20144;-62
2022/08/19 14:11:09;;;;;;;8.00;5.05;;;;;;;;;;10257068;28;20088;-62
2022/08/19 14:16:10;;;;;;;10.07;5.70;;;;;;;;;;10255346;28;20069;-62
2022/08/19 14:21:14;;;;;;;5.97;5.30;;;;;;;;;;10256723;28;20079;-62
2022/08/19 14:26:14;;;;;;;8.32;6.07;;;;;;;;;;10255958;28;20095;-62
2022/08/19 14:31:16;;;;;;;8.95;5.20;;;;;;;;;;10256922;28;20069;-63
2022/08/19 14:36:14;;;;;;;9.77;5.80;;;;;;;;;;10256303;28;20132;-62
2022/08/19 14:41:16;;;;;;;9.52;6.22;;;;;;;;;;10252543;28;20544;-62
2022/08/19 14:46:16;;;;;;;7.13;6.25;;;;;;;;;;10256612;28;20089;-62
2022/08/19 14:51:14;;;;;;;16.80;7.60;;;;;;;;;;10256323;28;20065;-62
2022/08/19 14:56:14;;;;;;;9.50;5.50;;;;;;;;;;10252073;28;20120;-66
2022/08/19 15:01:13;;;;;;;7.78;6.00;;;;;;;;;;10265151;28;20085;-64
2022/08/19 15:06:13;;;;;;;9.30;5.97;;;;;;;;;;10262805;28;20061;-66
2022/08/19 15:11:14;;;;;;;8.38;5.90;;;;;;;;;;10259082;28;20087;-66
2022/08/19 15:16:14;;;;;;;7.32;5.43;;;;;;;;;;10255008;28;20108;-66
2022/08/19 15:21:16;;;;;;;;;;;;;;;;;;10254173;28;20137;-67
2022/08/19 15:26:16;;;;;;;10.45;5.97;;;;;;;;;;10255743;28;19960;-67
2022/08/19 15:31:17;;;;;;;9.95;5.75;;;;;;;;;;10253935;28;20065;-64
2022/08/19 15:36:26;;;;;;;7.82;7.05;;;;;;;;;;10254997;28;20111;-66
2022/08/19 15:41:27;;;;;;;8.60;6.05;;;;;;;;;;10257066;28;20120;-67
2022/08/19 15:46:28;;;;;;;11.00;7.60;;;;;;;;;;10261642;28;20084;-66
2022/08/19 15:51:27;;;;;;;11.60;7.07;;;;;;;;;;10261561;28;20064;-65
2022/08/19 16:06:24;;;;;;;13.05;7.20;;;;;;;;;;10262211;28;20604;-65
2022/08/19 16:07:11;;;;;;;10.80;6.88;;;;;;;;;;10263184;28;20087;-64
2022/08/19 16:12:11;;;;;;;6.53;5.80;;;;;;;;;;10273916;28;20128;-65
2022/08/19 16:17:11;;;;;;;10.10;7.22;;;;;;;;;;10257576;28;20088;-66
2022/08/19 16:22:09;;;;;;;11.38;7.18;;;;;;;;;;10261837;28;20516;-65
2022/08/19 16:27:08;;;;;;;7.00;6.40;;;;;;;;;;10262085;28;20088;-66
2022/08/19 16:32:09;;;;;;;9.57;8.10;;;;;;;;;;10257561;28;20582;-64
2022/08/19 16:37:08;;;;;;;14.80;10.07;;;;;;;;;;10262345;28;20073;-63
2022/08/19 16:42:08;;;;;;;11.55;9.27;;;;;;;;;;10272374;28;20092;-63
2022/08/19 16:47:08;;;;;;;10.00;8.63;;;;;;;;;;10275310;28;20084;-64
2022/08/19 16:52:09;;;;;;;13.32;9.68;;;;;;;;;;10271231;28;20333;-63
2022/08/19 16:57:07;;;;;;;9.40;7.90;;;;;;;;;;10263641;28;20100;-63
2022/08/19 17:02:10;;;;;;;11.80;7.85;;;;;;;;;;10263331;28;20077;-63
2022/08/19 17:07:09;;;;;;;8.02;6.50;;;;;;;;;;10256891;28;20076;-63
2022/08/19 17:12:08;;;;;;;10.65;7.07;;;;;;;;;;10266471;28;20077;-64
2022/08/19 17:17:07;;;;;;;8.75;7.32;;;;;;;;;;10262863;28;20103;-64
2022/08/19 17:22:07;;;;;;;9.18;8.30;;;;;;;;;;10266301;28;20072;-64
2022/08/19 17:27:08;;;;;;;11.60;9.23;;;;;;;;;;10258299;28;20076;-61
2022/08/19 17:32:07;;;;;;;12.30;7.50;;;;;;;;;;10252137;28;20069;-62
2022/08/19 17:37:06;;;;;;;11.15;8.02;;;;;;;;;;10251180;28;20068;-62
2022/08/19 17:42:05;;;;;;;6.97;6.15;;;;;;;;;;10257454;28;20068;-62
2022/08/19 17:47:05;;;;;;;8.93;7.10;;;;;;;;;;10242575;28;20088;-63
2022/08/19 17:52:03;;;;;;;11.38;6.88;;;;;;;;;;10251359;28;20076;-62
2022/08/19 17:57:09;;;;;;;11.30;7.00;;;;;;;;;;10253385;28;20089;-62
2022/08/19 18:02:08;;;;;;;9.40;6.70;;;;;;;;;;10252153;28;20064;-62
2022/08/19 18:07:07;;;;;;;8.82;6.10;;;;;;;;;;10251669;28;20079;-63
2022/08/19 18:12:06;;;;;;;7.90;6.93;;;;;;;;;;10249227;28;20064;-64
2022/08/19 18:17:08;;;;;;;10.05;6.03;;;;;;;;;;10252145;28;20076;-63
2022/08/19 18:22:06;;;;;;;7.83;7.00;;;;;;;;;;10253090;28;20072;-64
2022/08/19 18:27:06;;;;;;;12.10;5.55;;;;;;;;;;10251936;28;20068;-63
2022/08/19 18:32:11;;;;;;;11.80;5.78;;;;;;;;;;10253993;28;20076;-63
2022/08/19 18:37:10;;;;;;;8.82;4.93;;;;;;;;;;10253165;28;20096;-63
2022/08/19 18:52:52;;;;;;;10.05;5.07;;;;;;;;;;10254319;28;20470;-64
2022/08/19 18:57:50;;;;;;;10.07;4.93;;;;;;;;;;10260088;28;20073;-63
2022/08/19 19:02:53;;;;;;;8.48;4.57;;;;;;;;;;10254808;28;20065;-63
2022/08/19 19:07:53;;;;;;;9.00;4.78;;;;;;;;;;10253414;28;20069;-63
2022/08/19 19:12:51;;;;;;;10.25;5.28;;;;;;;;;;10251670;28;20072;-63
2022/08/19 19:17:49;;;;;;;15.23;4.88;;;;;;;;;;10261783;28;20077;-64
2022/08/19 19:22:49;;;;;;;11.45;5.28;;;;;;;;;;10275412;28;20077;-64
2022/08/19 19:27:53;;;;;;;11.27;5.45;;;;;;;;;;10272620;28;20081;-64
2022/08/19 19:32:54;;;;;;;14.32;5.20;;;;;;;;;;10262180;28;20077;-63
2022/08/19 19:37:54;;;;;;;7.95;4.53;;;;;;;;;;10259036;28;20076;-63
2022/08/19 19:42:54;;;;;;;10.35;5.38;;;;;;;;;;10263553;28;20069;-63
2022/08/19 19:47:52;;;;;;;10.25;5.47;;;;;;;;;;10259138;28;20084;-62
2022/08/19 19:52:51;;;;;;;9.57;4.40;;;;;;;;;;10267405;28;20585;-64
2022/08/19 19:57:52;;;;;;;12.13;4.75;;;;;;;;;;10263573;28;20485;-62
2022/08/19 20:02:52;;;;;;;7.95;4.90;;;;;;;;;;10268246;28;20077;-63
2022/08/19 20:13:08;;;;;;;11.05;6.57;;;;;;;;;;10263399;28;20534;-64
2022/08/19 20:18:07;;;;;;;7.18;5.57;;;;;;;;;;10269358;28;20072;-63
2022/08/19 20:23:05;;;;;;;8.85;5.47;;;;;;;;;;10263447;28;20471;-63
2022/08/19 20:28:04;;;;;;;9.35;5.03;;;;;;;;;;10264579;28;20077;-64
2022/08/19 20:33:05;;;;;;;7.70;4.95;;;;;;;;;;10257177;28;20068;-63
2022/08/19 20:38:07;;;;;;;6.03;4.55;;;;;;;;;;10266551;28;20084;-63
2022/08/19 20:43:07;;;;;;;8.80;4.65;;;;;;;;;;10264853;28;20072;-63
2022/08/19 20:48:09;;;;;;;9.82;5.20;;;;;;;;;;10266086;28;20514;-62
2022/08/19 20:53:11;;;;;;;11.30;5.10;;;;;;;;;;10261325;28;20073;-63
2022/08/19 20:58:11;;;;;;;12.60;5.55;;;;;;;;;;10267688;28;20087;-63
2022/08/19 21:03:11;;;;;;;10.02;5.00;;;;;;;;;;10266215;28;20079;-63
2022/08/19 21:08:09;;;;;;;6.85;5.03;;;;;;;;;;10266477;28;20431;-63
2022/08/19 21:13:08;;;;;;;8.18;4.25;;;;;;;;;;10268351;28;20568;-63
2022/08/19 21:18:07;;;;;;;8.18;4.63;;;;;;;;;;10258200;28;20072;-63
2022/08/19 21:23:07;;;;;;;9.00;4.88;;;;;;;;;;10261107;28;20073;-63
2022/08/19 21:28:07;;;;;;;7.03;4.72;;;;;;;;;;10262868;28;20087;-63
2022/08/19 21:33:06;;;;;;;7.63;4.82;;;;;;;;;;10260812;28;20084;-64
2022/08/19 21:38:06;;;;;;;10.88;5.55;;;;;;;;;;10262342;28;20580;-63
2022/08/19 21:43:05;;;;;;;7.50;5.00;;;;;;;;;;10247816;28;20073;-63
2022/08/19 21:48:03;;;;;;;7.80;5.15;;;;;;;;;;10242411;28;20072;-62
2022/08/19 21:53:02;;;;;;;6.90;5.10;;;;;;;;;;10256088;28;20076;-63
2022/08/19 21:58:03;;;;;;;7.97;4.82;;;;;;;;;;10253075;28;20471;-63
2022/08/19 22:03:02;;;;;;;11.60;5.20;;;;;;;;;;10252622;28;20064;-63
2022/08/19 22:08:01;;;;;;;9.85;4.72;;;;;;;;;;10255984;28;20499;-63
2022/08/19 22:12:59;;;;;;;11.15;5.03;;;;;;;;;;10254427;28;20064;-62
2022/08/19 22:18:00;;;;;;;6.10;4.63;;;;;;;;;;10254214;28;20073;-63
2022/08/19 22:23:00;;;;;;;7.30;5.40;;;;;;;;;;10257686;28;20487;-63
2022/08/19 22:27:59;;;;;;;8.98;4.85;;;;;;;;;;10256145;28;20450;-63
2022/08/19 22:33:06;;;;;;;10.98;5.20;;;;;;;;;;10253659;28;20076;-63
2022/08/19 22:38:06;;;;;;;11.88;4.72;;;;;;;;;;10255265;28;20084;-63
2022/08/19 22:43:05;;;;;;;9.05;5.15;;;;;;;;;;10254721;28;20482;-63
2022/08/19 22:48:06;;;;;;;14.68;5.88;;;;;;;;;;10253513;28;20140;-63
2022/08/19 22:53:06;;;;;;;6.80;4.70;;;;;;;;;;10262046;28;20068;-63
2022/08/19 22:58:04;;;;;;;12.65;5.53;;;;;;;;;;10267162;28;20069;-63
2022/08/19 23:03:02;;;;;;;9.05;5.65;;;;;;;;;;10263047;28;20522;-63
2022/08/19 23:08:02;;;;;;;10.25;6.35;;;;;;;;;;10260676;28;20080;-63
2022/08/19 23:13:00;;;;;;;13.20;5.38;;;;;;;;;;10261769;28;20065;-63
2022/08/19 23:17:59;;;;;;;9.02;5.07;;;;;;;;;;10265529;28;20462;-63
2022/08/19 23:22:58;;;;;;;10.07;5.80;;;;;;;;;;10263509;28;20068;-63
2022/08/19 23:33:17;;;;;;;14.63;6.32;;;;;;;;;;10256564;28;20065;-62
2022/08/19 23:38:15;;;;;;;7.43;5.78;;;;;;;;;;10256330;28;20455;-63
2022/08/19 23:43:15;;;;;;;10.15;5.57;;;;;;;;;;10255851;28;20045;-63
2022/08/19 23:48:22;;;;;;;11.07;4.85;;;;;;;;;;10262854;28;20533;-63
2022/08/19 23:53:20;;;;;;;9.25;5.28;;;;;;;;;;10260372;28;20061;-64
2022/08/19 23:58:21;;;;;;;8.02;5.35;;;;;;;;;;10258247;28;20057;-63
